sensor_id;sensor_type;location;lat;lon;timestamp;pressure;altitude;pressure_sealevel;temperature;humidity
75699;BME280;64313;51.018;13.742;2023-02-15T00:01:39;101245.38;;;1.98;78.92
75699;BME280;64313;51.018;13.742;2023-02-15T00:04:05;101243.72;;;1.97;79.34
75699;BME280;64313;51.018;13.742;2023-02-15T00:06:31;101243.81;;;1.95;79.07
75699;BME280;64313;51.018;13.742;2023-02-15T00:08:56;101243.72;;;1.97;79.34
75699;BME280;64313;51.018;13.742;2023-02-15T00:11:22;101247.41;;;1.94;79.27
75699;BME280;64313;51.018;13.742;2023-02-15T00:14:18;101237.69;;;1.95;78.92
75699;BME280;64313;51.018;13.742;2023-02-15T00:16:44;101242.22;;;1.93;78.93
75699;BME280;64313;51.018;13.742;2023-02-15T00:19:10;101242.44;;;1.90;79.32
75699;BME280;64313;51.018;13.742;2023-02-15T00:21:37;101239.06;;;1.88;79.71
75699;BME280;64313;51.018;13.742;2023-02-15T00:24:05;101239.06;;;1.88;79.74
75699;BME280;64313;51.018;13.742;2023-02-15T00:26:30;101239.06;;;1.88;79.21
75699;BME280;64313;51.018;13.742;2023-02-15T00:28:56;101239.91;;;1.88;79.48
75699;BME280;64313;51.018;13.742;2023-02-15T00:31:29;101235.69;;;1.86;79.86
75699;BME280;64313;51.018;13.742;2023-02-15T00:34:00;101231.38;;;1.85;79.62
75699;BME280;64313;51.018;13.742;2023-02-15T00:36:25;101237.56;;;1.84;79.59
75699;BME280;64313;51.018;13.742;2023-02-15T00:38:51;101236.72;;;1.83;79.58
75699;BME280;64313;51.018;13.742;2023-02-15T00:41:16;101235.91;;;1.83;79.36
75699;BME280;64313;51.018;13.742;2023-02-15T00:43:41;101227.38;;;1.79;80.10
75699;BME280;64313;51.018;13.742;2023-02-15T00:46:07;101227.38;;;1.79;79.74
75699;BME280;64313;51.018;13.742;2023-02-15T00:48:32;101223.03;;;1.78;79.77
75699;BME280;64313;51.018;13.742;2023-02-15T00:50:59;101225.78;;;1.77;79.87
75699;BME280;64313;51.018;13.742;2023-02-15T00:53:26;101219.03;;;1.72;79.92
75699;BME280;64313;51.018;13.742;2023-02-15T00:55:52;101218.19;;;1.72;79.79
75699;BME280;64313;51.018;13.742;2023-02-15T00:58:18;101220.69;;;1.73;80.19
75699;BME280;64313;51.018;13.742;2023-02-15T01:00:45;101214.72;;;1.71;80.39
75699;BME280;64313;51.018;13.742;2023-02-15T01:03:12;101212.06;;;1.71;80.25
75699;BME280;64313;51.018;13.742;2023-02-15T01:05:38;101215.44;;;1.73;79.86
75699;BME280;64313;51.018;13.742;2023-02-15T01:08:04;101212.78;;;1.73;79.92
75699;BME280;64313;51.018;13.742;2023-02-15T01:10:30;101208.47;;;1.72;79.92
75699;BME280;64313;51.018;13.742;2023-02-15T01:12:56;101207.50;;;1.73;80.11
75699;BME280;64313;51.018;13.742;2023-02-15T01:15:22;101203.22;;;1.72;79.76
75699;BME280;64313;51.018;13.742;2023-02-15T01:17:48;101198.03;;;1.71;79.70
75699;BME280;64313;51.018;13.742;2023-02-15T01:20:24;101199.00;;;1.70;79.93
75699;BME280;64313;51.018;13.742;2023-02-15T01:22:50;101199.09;;;1.68;79.80
75699;BME280;64313;51.018;13.742;2023-02-15T01:25:16;101206.28;;;1.66;80.01
75699;BME280;64313;51.018;13.742;2023-02-15T01:27:42;101203.63;;;1.66;79.66
75699;BME280;64313;51.018;13.742;2023-02-15T01:30:08;101203.72;;;1.65;80.03
75699;BME280;64313;51.018;13.742;2023-02-15T01:32:34;101205.41;;;1.66;79.86
75699;BME280;64313;51.018;13.742;2023-02-15T01:34:59;101203.72;;;1.65;80.39
75699;BME280;64313;51.018;13.742;2023-02-15T01:37:25;101198.47;;;1.65;80.07
75699;BME280;64313;51.018;13.742;2023-02-15T01:39:50;101195.00;;;1.64;79.84
75699;BME280;64313;51.018;13.742;2023-02-15T01:42:23;101189.72;;;1.64;79.88
75699;BME280;64313;51.018;13.742;2023-02-15T01:44:54;101184.44;;;1.64;80.25
75699;BME280;64313;51.018;13.742;2023-02-15T01:47:26;101186.34;;;1.62;79.89
75699;BME280;64313;51.018;13.742;2023-02-15T01:50:02;101181.91;;;1.63;79.48
75699;BME280;64313;51.018;13.742;2023-02-15T01:52:29;101176.72;;;1.61;79.91
75699;BME280;64313;51.018;13.742;2023-02-15T01:54:55;101174.97;;;1.62;79.84
75699;BME280;64313;51.018;13.742;2023-02-15T01:57:23;101166.31;;;1.60;79.85
75699;BME280;64313;51.018;13.742;2023-02-15T01:59:55;101159.34;;;1.59;79.95
75699;BME280;64313;51.018;13.742;2023-02-15T02:02:22;101156.69;;;1.59;80.24
75699;BME280;64313;51.018;13.742;2023-02-15T02:04:54;101155.88;;;1.58;79.87
75699;BME280;64313;51.018;13.742;2023-02-15T02:07:23;101152.59;;;1.55;80.04
75699;BME280;64313;51.018;13.742;2023-02-15T02:09:49;101147.22;;;1.56;79.96
75699;BME280;64313;51.018;13.742;2023-02-15T02:12:18;101150.91;;;1.54;80.00
75699;BME280;64313;51.018;13.742;2023-02-15T02:14:46;101139.44;;;1.55;79.86
75699;BME280;64313;51.018;13.742;2023-02-15T02:20:30;101139.66;;;1.51;79.90
75699;BME280;64313;51.018;13.742;2023-02-15T02:23:08;101141.41;;;1.51;80.02
75699;BME280;64313;51.018;13.742;2023-02-15T02:32:13;101136.38;;;1.48;80.04
75699;BME280;64313;51.018;13.742;2023-02-15T02:35:01;101142.59;;;1.47;80.32
75699;BME280;64313;51.018;13.742;2023-02-15T02:37:37;101130.47;;;1.44;80.12
75699;BME280;64313;51.018;13.742;2023-02-15T02:40:15;101133.13;;;1.44;80.21
75699;BME280;64313;51.018;13.742;2023-02-15T02:42:59;101133.13;;;1.44;80.37
75699;BME280;64313;51.018;13.742;2023-02-15T02:47:59;101122.78;;;1.41;80.40
75699;BME280;64313;51.018;13.742;2023-02-15T02:50:29;101125.44;;;1.41;80.15
75699;BME280;64313;51.018;13.742;2023-02-15T02:52:56;101127.09;;;1.42;80.17
75699;BME280;64313;51.018;13.742;2023-02-15T02:55:38;101129.00;;;1.40;80.66
75699;BME280;64313;51.018;13.742;2023-02-15T02:58:11;101121.00;;;1.42;80.31
75699;BME280;64313;51.018;13.742;2023-02-15T03:00:45;101119.28;;;1.41;80.67
75699;BME280;64313;51.018;13.742;2023-02-15T03:03:36;101121.09;;;1.40;80.15
75699;BME280;64313;51.018;13.742;2023-02-15T03:06:13;101121.22;;;1.39;80.04
75699;BME280;64313;51.018;13.742;2023-02-15T03:08:51;101109.81;;;1.38;80.28
75699;BME280;64313;51.018;13.742;2023-02-15T03:11:19;101118.66;;;1.37;80.25
75699;BME280;64313;51.018;13.742;2023-02-15T03:13:46;101110.84;;;1.36;80.62
75699;BME280;64313;51.018;13.742;2023-02-15T03:16:13;101121.41;;;1.36;80.49
75699;BME280;64313;51.018;13.742;2023-02-15T03:19:06;101117.94;;;1.35;80.05
75699;BME280;64313;51.018;13.742;2023-02-15T03:21:58;101115.50;;;1.32;80.62
75699;BME280;64313;51.018;13.742;2023-02-15T03:24:37;101114.56;;;1.33;80.47
75699;BME280;64313;51.018;13.742;2023-02-15T03:27:11;101116.47;;;1.31;80.23
75699;BME280;64313;51.018;13.742;2023-02-15T03:29:42;101117.41;;;1.30;79.99
75699;BME280;64313;51.018;13.742;2023-02-15T03:32:08;101110.66;;;1.26;80.05
75699;BME280;64313;51.018;13.742;2023-02-15T03:34:35;101109.81;;;1.25;80.03
75699;BME280;64313;51.018;13.742;2023-02-15T03:37:11;101113.28;;;1.26;80.52
75699;BME280;64313;51.018;13.742;2023-02-15T03:39:57;101116.03;;;1.24;80.41
75699;BME280;64313;51.018;13.742;2023-02-15T03:42:45;101117.94;;;1.22;80.25
75699;BME280;64313;51.018;13.742;2023-02-15T03:45:17;101121.41;;;1.23;80.09
75699;BME280;64313;51.018;13.742;2023-02-15T03:47:47;101119.72;;;1.22;80.45
75699;BME280;64313;51.018;13.742;2023-02-15T03:50:19;101121.50;;;1.21;80.54
75699;BME280;64313;51.018;13.742;2023-02-15T03:53:06;101126.03;;;1.19;80.26
75699;BME280;64313;51.018;13.742;2023-02-15T03:55:34;101119.06;;;1.18;80.55
75699;BME280;64313;51.018;13.742;2023-02-15T03:58:00;101113.94;;;1.17;80.25
75699;BME280;64313;51.018;13.742;2023-02-15T04:00:49;101119.19;;;1.17;80.59
75699;BME280;64313;51.018;13.742;2023-02-15T04:03:41;101117.47;;;1.16;80.49
75699;BME280;64313;51.018;13.742;2023-02-15T04:06:08;101114.84;;;1.16;80.19
75699;BME280;64313;51.018;13.742;2023-02-15T04:08:33;101113.19;;;1.15;80.54
75699;BME280;64313;51.018;13.742;2023-02-15T04:11:30;101116.88;;;1.12;80.55
75699;BME280;64313;51.018;13.742;2023-02-15T04:13:56;101112.56;;;1.11;80.29
75699;BME280;64313;51.018;13.742;2023-02-15T04:16:25;101107.38;;;1.10;79.95
75699;BME280;64313;51.018;13.742;2023-02-15T04:18:51;101111.06;;;1.07;80.50
75699;BME280;64313;51.018;13.742;2023-02-15T04:21:34;101110.22;;;1.06;80.88
75699;BME280;64313;51.018;13.742;2023-02-15T04:24:18;101112.75;;;1.08;80.46
75699;BME280;64313;51.018;13.742;2023-02-15T04:27:03;101109.28;;;1.07;80.53
75699;BME280;64313;51.018;13.742;2023-02-15T04:29:29;101106.75;;;1.06;80.60
75699;BME280;64313;51.018;13.742;2023-02-15T04:31:57;101105.06;;;1.05;80.50
75699;BME280;64313;51.018;13.742;2023-02-15T04:34:22;101108.53;;;1.05;80.63
75699;BME280;64313;51.018;13.742;2023-02-15T04:36:48;101111.16;;;1.05;80.88
75699;BME280;64313;51.018;13.742;2023-02-15T04:39:16;101108.53;;;1.05;80.59
75699;BME280;64313;51.018;13.742;2023-02-15T04:41:41;101102.31;;;1.06;80.66
75699;BME280;64313;51.018;13.742;2023-02-15T04:44:07;101104.13;;;1.06;80.48
75699;BME280;64313;51.018;13.742;2023-02-15T04:46:32;101105.06;;;1.05;80.68
75699;BME280;64313;51.018;13.742;2023-02-15T04:48:58;101096.53;;;1.01;80.90
75699;BME280;64313;51.018;13.742;2023-02-15T04:51:23;101100.84;;;1.02;80.53
75699;BME280;64313;51.018;13.742;2023-02-15T04:53:49;101095.56;;;1.02;80.52
75699;BME280;64313;51.018;13.742;2023-02-15T04:56:18;101089.56;;;1.00;80.39
75699;BME280;64313;51.018;13.742;2023-02-15T04:58:43;101089.69;;;0.99;80.83
75699;BME280;64313;51.018;13.742;2023-02-15T05:01:08;101091.47;;;0.98;80.70
75699;BME280;64313;51.018;13.742;2023-02-15T05:03:34;101095.78;;;0.99;80.84
75699;BME280;64313;51.018;13.742;2023-02-15T05:06:00;101087.88;;;0.99;81.05
75699;BME280;64313;51.018;13.742;2023-02-15T05:08:25;101080.94;;;0.98;80.91
75699;BME280;64313;51.018;13.742;2023-02-15T05:10:50;101083.47;;;1.00;80.81
75699;BME280;64313;51.018;13.742;2023-02-15T05:13:16;101081.78;;;0.99;80.75
75699;BME280;64313;51.018;13.742;2023-02-15T05:15:45;101078.31;;;0.98;80.95
75699;BME280;64313;51.018;13.742;2023-02-15T05:18:11;101076.63;;;0.97;80.83
75699;BME280;64313;51.018;13.742;2023-02-15T05:20:36;101073.97;;;0.97;80.89
75699;BME280;64313;51.018;13.742;2023-02-15T05:23:02;101069.69;;;0.96;80.68
75699;BME280;64313;51.018;13.742;2023-02-15T05:25:27;101077.44;;;0.98;80.75
75699;BME280;64313;51.018;13.742;2023-02-15T05:28:11;101081.03;;;0.97;80.73
75699;BME280;64313;51.018;13.742;2023-02-15T05:31:02;101077.56;;;0.96;80.39
75699;BME280;64313;51.018;13.742;2023-02-15T05:33:27;101074.19;;;0.94;80.09
75699;BME280;64313;51.018;13.742;2023-02-15T05:35:53;101068.94;;;0.94;80.50
75699;BME280;64313;51.018;13.742;2023-02-15T05:38:18;101077.75;;;0.93;80.46
75699;BME280;64313;51.018;13.742;2023-02-15T05:40:43;101074.41;;;0.91;80.52
75699;BME280;64313;51.018;13.742;2023-02-15T05:43:09;101077.97;;;0.90;80.34
75699;BME280;64313;51.018;13.742;2023-02-15T05:45:34;101080.50;;;0.92;80.39
75699;BME280;64313;51.018;13.742;2023-02-15T05:47:59;101072.81;;;0.89;80.31
75699;BME280;64313;51.018;13.742;2023-02-15T05:50:25;101081.56;;;0.89;80.59
75699;BME280;64313;51.018;13.742;2023-02-15T05:52:51;101079.13;;;0.86;80.61
75699;BME280;64313;51.018;13.742;2023-02-15T05:55:16;101075.75;;;0.84;80.46
75699;BME280;64313;51.018;13.742;2023-02-15T05:57:42;101077.56;;;0.83;80.75
75699;BME280;64313;51.018;13.742;2023-02-15T06:00:07;101075.75;;;0.84;80.77
75699;BME280;64313;51.018;13.742;2023-02-15T06:02:37;101079.31;;;0.83;80.31
75699;BME280;64313;51.018;13.742;2023-02-15T06:05:04;101074.06;;;0.83;80.24
75699;BME280;64313;51.018;13.742;2023-02-15T06:07:30;101075.22;;;0.79;80.66
75699;BME280;64313;51.018;13.742;2023-02-15T06:09:55;101074.38;;;0.78;80.43
75699;BME280;64313;51.018;13.742;2023-02-15T06:12:21;101075.22;;;0.79;80.31
75699;BME280;64313;51.018;13.742;2023-02-15T06:14:46;101082.38;;;0.77;80.41
75699;BME280;64313;51.018;13.742;2023-02-15T06:17:11;101073.84;;;0.73;80.48
75699;BME280;64313;51.018;13.742;2023-02-15T06:19:37;101081.63;;;0.75;80.32
75699;BME280;64313;51.018;13.742;2023-02-15T06:22:02;101084.38;;;0.73;80.86
75699;BME280;64313;51.018;13.742;2023-02-15T06:24:28;101075.75;;;0.71;80.40
75699;BME280;64313;51.018;13.742;2023-02-15T06:26:53;101075.53;;;0.74;80.40
75699;BME280;64313;51.018;13.742;2023-02-15T06:29:18;101072.06;;;0.74;80.58
75699;BME280;64313;51.018;13.742;2023-02-15T06:31:44;101078.38;;;0.71;80.48
75699;BME280;64313;51.018;13.742;2023-02-15T06:34:09;101070.34;;;0.73;80.62
75699;BME280;64313;51.018;13.742;2023-02-15T06:36:34;101075.75;;;0.71;80.76
75699;BME280;64313;51.018;13.742;2023-02-15T06:39:00;101064.47;;;0.69;80.84
75699;BME280;64313;51.018;13.742;2023-02-15T06:41:27;101067.94;;;0.70;80.51
75699;BME280;64313;51.018;13.742;2023-02-15T06:43:52;101064.38;;;0.71;80.57
75699;BME280;64313;51.018;13.742;2023-02-15T06:46:17;101078.25;;;0.73;80.58
75699;BME280;64313;51.018;13.742;2023-02-15T06:48:43;101072.97;;;0.73;80.74
75699;BME280;64313;51.018;13.742;2023-02-15T06:51:08;101065.09;;;0.73;80.80
75699;BME280;64313;51.018;13.742;2023-02-15T06:53:33;101061.63;;;0.72;80.68
75699;BME280;64313;51.018;13.742;2023-02-15T06:56:06;101064.91;;;0.76;81.03
75699;BME280;64313;51.018;13.742;2023-02-15T06:58:40;101062.91;;;0.79;80.80
75699;BME280;64313;51.018;13.742;2023-02-15T07:01:06;101061.22;;;0.78;80.64
75699;BME280;64313;51.018;13.742;2023-02-15T07:03:32;101064.69;;;0.79;80.91
75699;BME280;64313;51.018;13.742;2023-02-15T07:05:58;101060.19;;;0.81;80.86
75699;BME280;64313;51.018;13.742;2023-02-15T07:08:25;101060.06;;;0.82;80.81
75699;BME280;64313;51.018;13.742;2023-02-15T07:10:51;101059.00;;;0.85;80.91
75699;BME280;64313;51.018;13.742;2023-02-15T07:13:16;101055.13;;;0.91;80.73
75699;BME280;64313;51.018;13.742;2023-02-15T07:15:42;101048.09;;;0.91;80.47
75699;BME280;64313;51.018;13.742;2023-02-15T07:18:08;101041.94;;;0.91;81.43
75699;BME280;64313;51.018;13.742;2023-02-15T07:20:34;101038.38;;;0.92;80.68
75699;BME280;64313;51.018;13.742;2023-02-15T07:23:01;101045.22;;;0.94;81.05
75699;BME280;64313;51.018;13.742;2023-02-15T07:25:26;101045.03;;;0.97;81.13
75699;BME280;64313;51.018;13.742;2023-02-15T07:27:59;101041.34;;;1.00;80.96
75699;BME280;64313;51.018;13.742;2023-02-15T07:30:24;101048.19;;;1.02;80.94
75699;BME280;64313;51.018;13.742;2023-02-15T07:32:50;101039.13;;;1.06;80.95
75699;BME280;64313;51.018;13.742;2023-02-15T07:35:34;101044.94;;;1.12;81.23
75699;BME280;64313;51.018;13.742;2023-02-15T07:38:00;101037.56;;;1.17;81.03
75699;BME280;64313;51.018;13.742;2023-02-15T07:40:25;101037.34;;;1.20;80.84
75699;BME280;64313;51.018;13.742;2023-02-15T07:42:51;101025.44;;;1.27;80.86
75699;BME280;64313;51.018;13.742;2023-02-15T07:45:20;101037.22;;;1.34;80.63
75699;BME280;64313;51.018;13.742;2023-02-15T07:47:46;101025.50;;;1.38;80.54
75699;BME280;64313;51.018;13.742;2023-02-15T07:50:12;101028.66;;;1.43;80.62
75699;BME280;64313;51.018;13.742;2023-02-15T07:52:37;101017.94;;;1.46;80.24
75699;BME280;64313;51.018;13.742;2023-02-15T07:55:03;101020.22;;;1.51;80.57
75699;BME280;64313;51.018;13.742;2023-02-15T07:57:28;101015.59;;;1.55;80.44
75699;BME280;64313;51.018;13.742;2023-02-15T07:59:54;101013.47;;;1.60;80.26
75699;BME280;64313;51.018;13.742;2023-02-15T08:02:19;101014.81;;;1.65;80.51
75699;BME280;64313;51.018;13.742;2023-02-15T08:04:45;101015.22;;;1.72;80.28
75699;BME280;64313;51.018;13.742;2023-02-15T08:07:10;101010.47;;;1.77;80.46
75699;BME280;64313;51.018;13.742;2023-02-15T08:09:35;101002.34;;;1.80;80.84
75699;BME280;64313;51.018;13.742;2023-02-15T08:12:01;100996.75;;;1.85;80.03
75699;BME280;64313;51.018;13.742;2023-02-15T08:14:27;101000.72;;;1.90;80.31
75699;BME280;64313;51.018;13.742;2023-02-15T08:16:54;101000.28;;;1.97;80.04
75699;BME280;64313;51.018;13.742;2023-02-15T08:19:28;100990.94;;;2.04;80.31
75699;BME280;64313;51.018;13.742;2023-02-15T08:22:02;100992.19;;;2.11;80.16
75699;BME280;64313;51.018;13.742;2023-02-15T08:24:30;100992.44;;;2.19;79.78
75699;BME280;64313;51.018;13.742;2023-02-15T08:26:56;100990.31;;;2.24;80.20
75699;BME280;64313;51.018;13.742;2023-02-15T08:29:25;100994.06;;;2.33;79.49
75699;BME280;64313;51.018;13.742;2023-02-15T08:31:57;100982.94;;;2.41;79.00
75699;BME280;64313;51.018;13.742;2023-02-15T08:34:24;100980.56;;;2.49;79.15
75699;BME280;64313;51.018;13.742;2023-02-15T08:36:50;100984.66;;;2.53;78.91
75699;BME280;64313;51.018;13.742;2023-02-15T08:39:16;100982.53;;;2.58;78.95
75699;BME280;64313;51.018;13.742;2023-02-15T08:41:43;100979.53;;;2.63;78.68
75699;BME280;64313;51.018;13.742;2023-02-15T08:44:10;100980.75;;;2.70;78.38
75699;BME280;64313;51.018;13.742;2023-02-15T08:46:40;100974.28;;;2.74;78.76
75699;BME280;64313;51.018;13.742;2023-02-15T08:49:06;100977.16;;;2.82;80.43
75699;BME280;64313;51.018;13.742;2023-02-15T08:51:35;100977.44;;;2.90;79.06
75699;BME280;64313;51.018;13.742;2023-02-15T08:54:06;100975.84;;;2.99;78.88
75699;BME280;64313;51.018;13.742;2023-02-15T08:56:33;100968.31;;;3.06;78.18
75699;BME280;64313;51.018;13.742;2023-02-15T08:58:59;100973.81;;;3.14;77.89
75699;BME280;64313;51.018;13.742;2023-02-15T09:01:27;100974.41;;;3.17;77.77
75699;BME280;64313;51.018;13.742;2023-02-15T09:04:01;100967.84;;;3.23;77.62
75699;BME280;64313;51.018;13.742;2023-02-15T09:06:28;100971.78;;;3.29;77.35
75699;BME280;64313;51.018;13.742;2023-02-15T09:08:54;100971.28;;;3.35;77.21
75699;BME280;64313;51.018;13.742;2023-02-15T09:11:22;100974.41;;;3.40;77.44
75699;BME280;64313;51.018;13.742;2023-02-15T09:13:53;100971.16;;;3.47;77.11
75699;BME280;64313;51.018;13.742;2023-02-15T09:16:20;100955.75;;;3.53;77.05
75699;BME280;64313;51.018;13.742;2023-02-15T09:18:46;100961.66;;;3.56;77.09
75699;BME280;64313;51.018;13.742;2023-02-15T09:21:14;100960.22;;;3.63;77.32
75699;BME280;64313;51.018;13.742;2023-02-15T09:23:44;100968.47;;;3.70;77.26
75699;BME280;64313;51.018;13.742;2023-02-15T09:26:12;100968.81;;;3.77;76.35
75699;BME280;64313;51.018;13.742;2023-02-15T09:28:38;100963.03;;;3.83;75.81
75699;BME280;64313;51.018;13.742;2023-02-15T09:33:35;100960.94;;;3.98;75.82
75699;BME280;64313;51.018;13.742;2023-02-15T09:36:02;100957.91;;;4.02;75.67
75699;BME280;64313;51.018;13.742;2023-02-15T09:38:27;100960.19;;;4.07;75.83
75699;BME280;64313;51.018;13.742;2023-02-15T09:41:46;100949.94;;;4.14;75.23
75699;BME280;64313;51.018;13.742;2023-02-15T09:49:35;100950.78;;;4.35;75.03
75699;BME280;64313;51.018;13.742;2023-02-15T10:06:05;100946.88;;;4.81;74.38
75699;BME280;64313;51.018;13.742;2023-02-15T10:09:13;100946.22;;;4.89;74.03
75699;BME280;64313;51.018;13.742;2023-02-15T10:19:43;100922.78;;;5.15;73.58
75699;BME280;64313;51.018;13.742;2023-02-15T10:25:31;100923.09;;;5.31;73.00
75699;BME280;64313;51.018;13.742;2023-02-15T10:28:05;100923.69;;;5.35;73.44
75699;BME280;64313;51.018;13.742;2023-02-15T10:30:51;100920.50;;;5.41;72.88
75699;BME280;64313;51.018;13.742;2023-02-15T10:33:40;100919.81;;;5.49;72.62
75699;BME280;64313;51.018;13.742;2023-02-15T10:36:16;100925.28;;;5.57;71.58
75699;BME280;64313;51.018;13.742;2023-02-15T10:39:06;100912.28;;;5.63;72.13
75699;BME280;64313;51.018;13.742;2023-02-15T10:41:53;100909.94;;;5.70;71.90
75699;BME280;64313;51.018;13.742;2023-02-15T10:47:46;100899.59;;;5.86;71.19
75699;BME280;64313;51.018;13.742;2023-02-15T10:50:24;100895.72;;;5.91;71.40
75699;BME280;64313;51.018;13.742;2023-02-15T10:55:42;100891.25;;;6.01;70.61
75699;BME280;64313;51.018;13.742;2023-02-15T11:01:01;100883.44;;;6.09;70.68
75699;BME280;64313;51.018;13.742;2023-02-15T11:03:40;100885.53;;;6.15;70.11
75699;BME280;64313;51.018;13.742;2023-02-15T11:06:22;100880.63;;;6.20;70.05
75699;BME280;64313;51.018;13.742;2023-02-15T11:08:55;100878.38;;;6.25;70.15
75699;BME280;64313;51.018;13.742;2023-02-15T11:11:23;100876.97;;;6.31;69.90
75699;BME280;64313;51.018;13.742;2023-02-15T11:13:55;100866.91;;;6.35;69.74
75699;BME280;64313;51.018;13.742;2023-02-15T11:16:26;100864.66;;;6.40;69.11
75699;BME280;64313;51.018;13.742;2023-02-15T11:18:58;100867.88;;;6.43;69.37
75699;BME280;64313;51.018;13.742;2023-02-15T11:21:33;100862.13;;;6.48;68.76
75699;BME280;64313;51.018;13.742;2023-02-15T11:24:12;100868.69;;;6.54;69.55
75699;BME280;64313;51.018;13.742;2023-02-15T11:26:43;100861.25;;;6.57;68.77
75699;BME280;64313;51.018;13.742;2023-02-15T11:29:22;100865.16;;;6.63;68.56
75699;BME280;64313;51.018;13.742;2023-02-15T11:31:54;100862.75;;;6.69;68.64
75699;BME280;64313;51.018;13.742;2023-02-15T11:34:33;100866.78;;;6.74;68.19
75699;BME280;64313;51.018;13.742;2023-02-15T11:37:05;100860.34;;;6.76;68.31
75699;BME280;64313;51.018;13.742;2023-02-15T11:39:33;100859.91;;;6.81;67.68
75699;BME280;64313;51.018;13.742;2023-02-15T11:42:04;100852.59;;;6.83;68.24
75699;BME280;64313;51.018;13.742;2023-02-15T11:44:36;100854.69;;;6.89;67.98
75699;BME280;64313;51.018;13.742;2023-02-15T11:47:10;100842.94;;;6.91;67.49
75699;BME280;64313;51.018;13.742;2023-02-15T11:49:36;100845.28;;;6.94;67.35
75699;BME280;64313;51.018;13.742;2023-02-15T11:52:04;100843.19;;;6.98;67.49
75699;BME280;64313;51.018;13.742;2023-02-15T11:54:34;100837.56;;;7.01;67.64
75699;BME280;64313;51.018;13.742;2023-02-15T11:57:11;100839.09;;;7.04;67.37
75699;BME280;64313;51.018;13.742;2023-02-15T11:59:37;100829.69;;;7.09;67.58
75699;BME280;64313;51.018;13.742;2023-02-15T12:02:16;100829.38;;;7.12;66.96
75699;BME280;64313;51.018;13.742;2023-02-15T12:04:48;100830.75;;;7.17;67.25
75699;BME280;64313;51.018;13.742;2023-02-15T12:07:30;100823.47;;;7.19;67.09
75699;BME280;64313;51.018;13.742;2023-02-15T12:10:17;100825.84;;;7.22;66.24
75699;BME280;64313;51.018;13.742;2023-02-15T12:12:45;100825.69;;;7.23;66.38
75699;BME280;64313;51.018;13.742;2023-02-15T12:15:11;100823.69;;;7.25;66.15
75699;BME280;64313;51.018;13.742;2023-02-15T12:17:48;100825.22;;;7.28;66.02
75699;BME280;64313;51.018;13.742;2023-02-15T12:22:41;100819.75;;;7.29;65.73
75699;BME280;64313;51.018;13.742;2023-02-15T12:25:22;100819.44;;;7.32;65.82
75699;BME280;64313;51.018;13.742;2023-02-15T12:27:51;100806.00;;;7.34;64.99
75699;BME280;64313;51.018;13.742;2023-02-15T12:30:22;100795.91;;;7.37;65.42
75699;BME280;64313;51.018;13.742;2023-02-15T12:32:54;100794.94;;;7.39;65.28
75699;BME280;64313;51.018;13.742;2023-02-15T12:35:28;100797.09;;;7.43;65.36
75699;BME280;64313;51.018;13.742;2023-02-15T12:37:57;100791.66;;;7.45;65.30
75699;BME280;64313;51.018;13.742;2023-02-15T12:40:27;100790.50;;;7.47;65.25
75699;BME280;64313;51.018;13.742;2023-02-15T12:42:53;100783.34;;;7.48;64.92
75699;BME280;64313;51.018;13.742;2023-02-15T12:45:26;100781.25;;;7.51;65.15
75699;BME280;64313;51.018;13.742;2023-02-15T12:50:42;100779.28;;;7.53;64.81
75699;BME280;64313;51.018;13.742;2023-02-15T12:53:19;100770.28;;;7.54;64.86
75699;BME280;64313;51.018;13.742;2023-02-15T12:56:05;100764.97;;;7.54;64.64
75699;BME280;64313;51.018;13.742;2023-02-15T12:58:33;100767.50;;;7.56;64.37
75699;BME280;64313;51.018;13.742;2023-02-15T13:03:34;100773.31;;;7.59;63.93
75699;BME280;64313;51.018;13.742;2023-02-15T13:06:02;100768.69;;;7.62;64.18
75699;BME280;64313;51.018;13.742;2023-02-15T13:08:35;100766.84;;;7.62;63.91
75699;BME280;64313;51.018;13.742;2023-02-15T13:11:03;100776.81;;;7.60;63.85
75699;BME280;64313;51.018;13.742;2023-02-15T13:13:33;100768.69;;;7.62;63.35
75699;BME280;64313;51.018;13.742;2023-02-15T13:16:26;100766.16;;;7.60;62.97
75699;BME280;64313;51.018;13.742;2023-02-15T13:18:54;100761.16;;;7.57;63.11
75699;BME280;64313;51.018;13.742;2023-02-15T13:21:20;100760.34;;;7.56;63.28
75699;BME280;64313;51.018;13.742;2023-02-15T13:23:55;100762.16;;;7.56;63.02
75699;BME280;64313;51.018;13.742;2023-02-15T13:26:26;100749.84;;;7.55;63.47
75699;BME280;64313;51.018;13.742;2023-02-15T13:28:55;100760.66;;;7.53;63.40
75699;BME280;64313;51.018;13.742;2023-02-15T13:31:24;100756.97;;;7.54;63.50
75699;BME280;64313;51.018;13.742;2023-02-15T13:33:55;100763.13;;;7.55;63.25
75699;BME280;64313;51.018;13.742;2023-02-15T13:36:51;100757.66;;;7.56;63.95
75699;BME280;64313;51.018;13.742;2023-02-15T13:39:32;100748.88;;;7.56;63.77
75699;BME280;64313;51.018;13.742;2023-02-15T13:42:05;100747.03;;;7.56;63.57
75699;BME280;64313;51.018;13.742;2023-02-15T13:47:43;100766.34;;;7.58;63.62
75699;BME280;64313;51.018;13.742;2023-02-15T13:55:51;100762.31;;;7.54;63.28
75699;BME280;64313;51.018;13.742;2023-02-15T13:58:51;100755.47;;;7.52;63.42
75699;BME280;64313;51.018;13.742;2023-02-15T14:01:44;100764.28;;;7.52;63.34
75699;BME280;64313;51.018;13.742;2023-02-15T14:04:34;100771.44;;;7.52;63.36
75699;BME280;64313;51.018;13.742;2023-02-15T14:07:33;100767.25;;;7.49;63.02
75699;BME280;64313;51.018;13.742;2023-02-15T14:15:28;100762.84;;;7.40;63.38
75699;BME280;64313;51.018;13.742;2023-02-15T14:20:41;100764.44;;;7.33;63.20
75699;BME280;64313;51.018;13.742;2023-02-15T14:25:54;100760.03;;;7.24;63.55
75699;BME280;64313;51.018;13.742;2023-02-15T14:28:49;100754.34;;;7.19;63.95
75699;BME280;64313;51.018;13.742;2023-02-15T14:31:18;100757.28;;;7.15;64.04